createdAt,value
2019-05-02T00:00:35.218Z,0.00
2019-05-02T00:02:29.121Z,0.00
2019-05-02T00:03:28.546Z,0.00
2019-05-02T00:05:21.913Z,0.00
2019-05-02T00:06:21.865Z,0.00
2019-05-02T00:08:15.216Z,0.00
2019-05-02T00:09:15.186Z,0.00
2019-05-02T00:11:08.553Z,0.00
2019-05-02T00:12:08.506Z,0.00
2019-05-02T00:14:01.850Z,0.00
2019-05-02T00:15:03.453Z,0.00
2019-05-02T00:16:55.192Z,0.00
2019-05-02T00:17:56.827Z,0.00
2019-05-02T00:19:52.613Z,0.00
2019-05-02T00:20:52.561Z,0.00
2019-05-02T00:22:47.989Z,0.00
2019-05-02T00:23:45.879Z,0.00
2019-05-02T00:25:40.251Z,0.00
2019-05-02T00:26:40.206Z,0.00
2019-05-02T00:28:33.545Z,0.00
2019-05-02T00:29:33.522Z,0.00
2019-05-02T00:31:27.884Z,0.00
2019-05-02T00:32:27.836Z,0.00
2019-05-02T00:34:21.193Z,0.00
2019-05-02T00:35:21.159Z,0.00
2019-05-02T00:37:18.981Z,0.00
2019-05-02T00:38:14.477Z,0.00
2019-05-02T00:40:08.818Z,0.00
2019-05-02T00:41:08.814Z,0.00
2019-05-02T00:43:02.169Z,0.00
2019-05-02T00:44:06.106Z,0.00
2019-05-02T00:45:59.805Z,0.00
2019-05-02T00:46:55.437Z,0.00
2019-05-02T00:47:55.418Z,0.00
2019-05-02T00:48:59.658Z,0.00
2019-05-02T00:49:55.380Z,0.00
2019-05-02T00:50:55.362Z,0.00
2019-05-02T00:51:56.625Z,0.00
2019-05-02T00:52:55.324Z,0.00
2019-05-02T00:53:55.336Z,0.00
2019-05-02T00:54:58.680Z,0.00
2019-05-02T00:55:55.265Z,0.00
2019-05-02T00:56:55.250Z,0.00
2019-05-02T00:57:55.644Z,0.00
2019-05-02T00:58:55.209Z,0.00
2019-05-02T00:59:55.189Z,0.00
2019-05-02T01:00:55.172Z,0.00
2019-05-02T01:01:55.151Z,0.00
2019-05-02T01:02:55.134Z,0.00
2019-05-02T01:03:55.113Z,0.00
2019-05-02T01:04:59.352Z,0.00
2019-05-02T01:05:55.074Z,0.00
2019-05-02T01:06:55.054Z,0.00
2019-05-02T01:07:56.021Z,0.00
2019-05-02T01:08:55.017Z,0.00
2019-05-02T01:09:55.036Z,0.00
2019-05-02T01:10:56.822Z,0.00
2019-05-02T01:11:54.970Z,0.00
2019-05-02T01:12:54.940Z,0.00
2019-05-02T01:13:55.655Z,0.00
2019-05-02T01:14:54.905Z,0.00
2019-05-02T01:15:54.884Z,0.00
2019-05-02T01:16:56.210Z,0.00
2019-05-02T01:17:54.844Z,0.00
2019-05-02T01:18:54.825Z,0.00
2019-05-02T01:19:54.808Z,0.00
2019-05-02T01:20:58.108Z,0.00
2019-05-02T01:21:54.768Z,0.00
2019-05-02T01:22:54.749Z,0.00
2019-05-02T01:23:58.930Z,0.00
2019-05-02T01:24:54.714Z,0.00
2019-05-02T01:25:54.690Z,0.00
2019-05-02T01:26:54.671Z,0.00
2019-05-02T01:27:54.652Z,0.00
2019-05-02T01:28:55.759Z,0.00
2019-05-02T01:29:54.614Z,0.00
2019-05-02T01:30:54.594Z,0.00
2019-05-02T01:31:54.961Z,0.00
2019-05-02T01:32:54.557Z,0.00
2019-05-02T01:33:54.538Z,0.00
2019-05-02T01:34:56.331Z,0.00
2019-05-02T01:35:54.498Z,0.00
2019-05-02T01:36:54.479Z,0.00
2019-05-02T01:37:54.972Z,0.00
2019-05-02T01:38:54.441Z,0.00
2019-05-02T01:39:54.422Z,0.00
2019-05-02T01:40:54.778Z,0.00
2019-05-02T01:41:54.386Z,0.00
2019-05-02T01:42:54.369Z,0.00
2019-05-02T01:43:54.970Z,0.00
2019-05-02T01:44:54.326Z,0.00
2019-05-02T01:45:54.308Z,0.00
2019-05-02T01:46:58.834Z,0.00
2019-05-02T01:47:54.269Z,0.00
2019-05-02T01:48:54.251Z,0.00
2019-05-02T01:49:57.339Z,0.00
2019-05-02T01:50:54.213Z,0.00
2019-05-02T01:51:54.193Z,0.00
2019-05-02T01:52:58.607Z,0.00
2019-05-02T01:53:54.154Z,0.00
2019-05-02T01:54:54.135Z,0.00
2019-05-02T01:55:57.753Z,0.00
2019-05-02T01:56:54.098Z,0.00
2019-05-02T01:57:54.077Z,0.00
2019-05-02T01:58:57.753Z,0.00
2019-05-02T01:59:54.041Z,0.00
2019-05-02T02:00:54.024Z,0.00
2019-05-02T02:01:57.946Z,0.00
2019-05-02T02:02:53.987Z,0.00
2019-05-02T02:03:53.960Z,0.00
2019-05-02T02:04:56.917Z,0.00
2019-05-02T02:05:53.924Z,0.00
2019-05-02T02:06:53.907Z,0.00
2019-05-02T02:07:55.479Z,0.00
2019-05-02T02:08:53.866Z,0.00
2019-05-02T02:09:53.847Z,0.00
2019-05-02T02:10:56.498Z,0.00
2019-05-02T02:11:53.808Z,0.00
2019-05-02T02:13:03.229Z,0.00
2019-05-02T02:13:53.769Z,0.00
2019-05-02T02:14:55.456Z,0.00
2019-05-02T02:15:53.732Z,0.00
2019-05-02T02:16:53.711Z,0.00
2019-05-02T02:17:53.694Z,0.00
2019-05-02T02:18:53.671Z,0.00
2019-05-02T02:19:53.658Z,0.00
2019-05-02T02:20:53.634Z,0.00
2019-05-02T02:21:57.582Z,0.00
2019-05-02T02:22:53.601Z,0.00
2019-05-02T02:23:53.591Z,0.00
2019-05-02T02:24:55.965Z,0.00
2019-05-02T02:25:53.540Z,0.00
2019-05-02T02:26:53.519Z,0.00
2019-05-02T02:27:54.950Z,0.00
2019-05-02T02:28:53.482Z,0.00
2019-05-02T02:29:53.469Z,0.00
2019-05-02T02:30:57.715Z,0.00
2019-05-02T02:31:53.425Z,0.00
2019-05-02T02:32:53.447Z,0.00
2019-05-02T02:33:53.390Z,0.00
2019-05-02T02:34:53.372Z,0.00
2019-05-02T02:35:53.345Z,0.00
2019-05-02T02:36:53.327Z,0.00
2019-05-02T02:37:55.687Z,0.00
2019-05-02T02:38:53.295Z,0.00
2019-05-02T02:39:54.170Z,0.00
2019-05-02T02:40:53.253Z,0.00
2019-05-02T02:41:54.199Z,0.00
2019-05-02T02:42:53.211Z,0.00
2019-05-02T02:43:54.606Z,0.00
2019-05-02T02:44:53.172Z,0.00
2019-05-02T02:45:57.695Z,0.00
2019-05-02T02:46:53.133Z,0.00
2019-05-02T02:47:59.923Z,0.00
2019-05-02T02:48:53.102Z,0.00
2019-05-02T02:49:55.835Z,0.00
2019-05-02T02:50:53.056Z,0.00
2019-05-02T02:51:58.011Z,0.00
2019-05-02T02:52:53.017Z,0.00
2019-05-02T02:54:02.822Z,0.00
2019-05-02T02:54:52.981Z,0.00
2019-05-02T02:56:01.176Z,0.00
2019-05-02T02:56:52.941Z,0.00
2019-05-02T02:57:58.511Z,0.00
2019-05-02T02:58:52.901Z,0.00
2019-05-02T02:59:52.884Z,0.00
2019-05-02T03:00:52.865Z,0.00
2019-05-02T03:01:52.848Z,0.00
2019-05-02T03:02:52.839Z,0.00
2019-05-02T03:03:52.806Z,0.00
2019-05-02T03:04:52.788Z,0.00
2019-05-02T03:05:58.486Z,0.00
2019-05-02T03:06:52.747Z,0.00
2019-05-02T03:07:52.727Z,0.00
2019-05-02T03:08:52.710Z,0.00
2019-05-02T03:09:52.691Z,0.00
2019-05-02T03:10:52.668Z,0.00
2019-05-02T03:11:56.155Z,0.00
2019-05-02T03:12:52.630Z,0.00
2019-05-02T03:13:54.186Z,0.00
2019-05-02T03:14:52.595Z,0.00
2019-05-02T03:15:52.570Z,0.00
2019-05-02T03:16:52.554Z,0.00
2019-05-02T03:17:52.535Z,0.00
2019-05-02T03:18:52.516Z,0.00
2019-05-02T03:19:54.499Z,0.00
2019-05-02T03:20:52.476Z,0.00
2019-05-02T03:21:54.590Z,0.00
2019-05-02T03:22:52.453Z,0.00
2019-05-02T03:24:01.361Z,0.00
2019-05-02T03:24:52.398Z,0.00
2019-05-02T03:25:52.379Z,0.00
2019-05-02T03:26:55.410Z,0.00
2019-05-02T03:27:52.340Z,0.00
2019-05-02T03:28:58.234Z,0.00
2019-05-02T03:29:52.302Z,0.00
2019-05-02T03:30:52.287Z,0.00
2019-05-02T03:32:12.245Z,0.00
2019-05-02T03:33:04.678Z,0.00
2019-05-02T03:33:56.363Z,0.00
2019-05-02T03:34:53.855Z,0.00
2019-05-02T03:35:52.183Z,0.00
2019-05-02T03:36:52.169Z,0.00
2019-05-02T03:37:53.135Z,0.00
2019-05-02T03:38:52.127Z,0.00
2019-05-02T03:39:57.405Z,0.00
2019-05-02T03:40:52.088Z,0.00
2019-05-02T03:41:55.745Z,0.00
2019-05-02T03:42:52.046Z,0.00
2019-05-02T03:44:09.469Z,0.00
2019-05-02T03:44:56.439Z,0.00
2019-05-02T03:45:51.990Z,0.00
2019-05-02T03:46:54.504Z,0.00
2019-05-02T03:47:51.954Z,0.00
2019-05-02T03:48:51.944Z,0.00
2019-05-02T03:49:52.485Z,0.00
2019-05-02T03:50:51.890Z,0.00
2019-05-02T03:51:55.867Z,0.00
2019-05-02T03:52:51.856Z,0.00
2019-05-02T03:53:51.866Z,0.00
2019-05-02T03:54:52.568Z,0.00
2019-05-02T03:55:51.803Z,0.00
2019-05-02T03:56:53.458Z,0.00
2019-05-02T03:57:51.752Z,0.00
2019-05-02T03:58:55.958Z,0.00
2019-05-02T03:59:51.727Z,0.00
2019-05-02T04:01:00.872Z,0.00
2019-05-02T04:01:51.684Z,4.00
2019-05-02T04:02:59.264Z,4.00
2019-05-02T04:03:51.660Z,4.00
2019-05-02T04:04:54.148Z,4.00
2019-05-02T04:05:51.680Z,0.00
2019-05-02T04:06:54.875Z,0.00
2019-05-02T04:07:51.562Z,0.00
2019-05-02T04:08:59.241Z,0.00
2019-05-02T04:09:51.524Z,0.00
2019-05-02T04:10:52.693Z,4.00
2019-05-02T04:11:51.484Z,4.00
2019-05-02T04:12:53.270Z,4.00
2019-05-02T04:13:51.473Z,4.00
2019-05-02T04:14:55.609Z,4.00
2019-05-02T04:15:51.427Z,4.00
2019-05-02T04:16:55.097Z,4.00
2019-05-02T04:17:51.381Z,4.00
2019-05-02T04:18:55.672Z,4.00
2019-05-02T04:19:51.327Z,0.00
2019-05-02T04:20:52.003Z,4.00
2019-05-02T04:21:54.770Z,4.00
2019-05-02T04:22:51.263Z,8.00
2019-05-02T04:23:51.249Z,4.00
2019-05-02T04:24:54.590Z,4.00
2019-05-02T04:25:51.206Z,4.00
2019-05-02T04:26:53.624Z,4.00
2019-05-02T04:27:51.167Z,4.00
2019-05-02T04:28:52.149Z,4.00
2019-05-02T04:29:51.129Z,4.00
2019-05-02T04:30:53.673Z,4.00
2019-05-02T04:31:51.089Z,4.00
2019-05-02T04:32:55.723Z,4.00
2019-05-02T04:33:51.047Z,4.00
2019-05-02T04:34:55.630Z,8.00
2019-05-02T04:35:51.009Z,8.00
2019-05-02T04:36:59.851Z,8.00
2019-05-02T04:37:51.045Z,8.00
2019-05-02T04:38:52.522Z,8.00
2019-05-02T04:39:53.808Z,8.00
2019-05-02T04:40:50.912Z,8.00
2019-05-02T04:41:50.891Z,8.00
2019-05-02T04:43:01.040Z,8.00
2019-05-02T04:43:57.306Z,8.00
2019-05-02T04:45:11.841Z,8.00
2019-05-02T04:45:56.153Z,8.00
2019-05-02T04:46:50.791Z,8.00
2019-05-02T04:47:58.590Z,12.00
2019-05-02T04:48:53.020Z,8.00
2019-05-02T04:49:51.974Z,8.00
2019-05-02T04:50:51.773Z,8.00
2019-05-02T04:51:59.983Z,8.00
2019-05-02T04:52:53.744Z,12.00
2019-05-02T04:53:50.651Z,12.00
2019-05-02T04:54:50.634Z,12.00
2019-05-02T04:56:01.840Z,12.00
2019-05-02T04:56:55.113Z,12.00
2019-05-02T04:57:50.922Z,16.00
2019-05-02T04:58:50.561Z,12.00
2019-05-02T04:59:56.573Z,16.00
2019-05-02T05:00:58.002Z,16.00
2019-05-02T05:01:56.990Z,16.00
2019-05-02T05:02:53.083Z,16.00
2019-05-02T05:03:58.230Z,16.00
2019-05-02T05:04:50.437Z,20.00
2019-05-02T05:05:50.419Z,20.00
2019-05-02T05:06:55.920Z,20.00
2019-05-02T05:07:50.391Z,20.00
2019-05-02T05:08:50.387Z,20.00
2019-05-02T05:10:00.878Z,20.00
2019-05-02T05:10:50.318Z,20.00
2019-05-02T05:11:53.912Z,24.00
2019-05-02T05:12:50.278Z,24.00
2019-05-02T05:13:52.515Z,24.00
2019-05-02T05:14:50.240Z,24.00
2019-05-02T05:15:52.010Z,20.00
2019-05-02T05:16:53.846Z,20.00
2019-05-02T05:17:50.189Z,20.00
2019-05-02T05:18:53.118Z,20.00
2019-05-02T05:19:50.148Z,24.00
2019-05-02T05:20:52.961Z,20.00
2019-05-02T05:21:50.098Z,24.00
2019-05-02T05:22:50.084Z,24.00
2019-05-02T05:23:51.735Z,24.00
2019-05-02T05:24:50.040Z,24.00
2019-05-02T05:25:50.631Z,24.00
2019-05-02T05:26:50.001Z,28.00
2019-05-02T05:27:52.533Z,24.00
2019-05-02T05:28:49.971Z,24.00
2019-05-02T05:29:53.714Z,24.00
2019-05-02T05:30:52.182Z,24.00
2019-05-02T05:31:49.906Z,28.00
2019-05-02T05:32:49.883Z,28.00
2019-05-02T05:33:49.864Z,32.00
2019-05-02T05:34:49.847Z,32.00
2019-05-02T05:35:52.552Z,32.00
2019-05-02T05:36:49.805Z,36.00
2019-05-02T05:37:53.069Z,32.00
2019-05-02T05:38:49.764Z,36.00
2019-05-02T05:39:52.587Z,36.00
2019-05-02T05:40:50.313Z,36.00
2019-05-02T05:41:52.243Z,36.00
2019-05-02T05:42:49.686Z,36.00
2019-05-02T05:43:53.518Z,36.00
2019-05-02T05:44:49.647Z,36.00
2019-05-02T05:45:56.062Z,40.00
2019-05-02T05:46:49.623Z,36.00
2019-05-02T05:47:52.316Z,32.00
2019-05-02T05:48:49.571Z,36.00
2019-05-02T05:49:52.383Z,40.00
2019-05-02T05:50:49.531Z,40.00
2019-05-02T05:51:54.241Z,40.00
2019-05-02T05:52:51.883Z,40.00
2019-05-02T05:53:52.273Z,44.00
2019-05-02T05:54:49.447Z,44.00
2019-05-02T05:55:53.664Z,44.00
2019-05-02T05:56:49.409Z,40.00
2019-05-02T05:57:49.988Z,44.00
2019-05-02T05:58:52.537Z,44.00
2019-05-02T05:59:49.352Z,48.00
2019-05-02T06:00:53.823Z,48.00
2019-05-02T06:01:51.583Z,52.00
2019-05-02T06:02:53.729Z,56.00
2019-05-02T06:03:49.275Z,52.00
2019-05-02T06:04:50.271Z,48.00
2019-05-02T06:05:49.234Z,56.00
2019-05-02T06:06:49.212Z,52.00
2019-05-02T06:07:49.197Z,52.00
2019-05-02T06:08:53.895Z,56.00
2019-05-02T06:09:49.156Z,56.00
2019-05-02T06:10:49.137Z,56.00
2019-05-02T06:11:50.782Z,60.00
2019-05-02T06:12:49.104Z,64.00
2019-05-02T06:13:50.732Z,64.00
2019-05-02T06:14:49.054Z,60.00
2019-05-02T06:16:01.546Z,52.00
2019-05-02T06:16:51.783Z,48.00
2019-05-02T06:17:48.999Z,56.00
2019-05-02T06:18:48.980Z,60.00
2019-05-02T06:19:53.560Z,68.00
2019-05-02T06:20:48.936Z,60.00
2019-05-02T06:21:48.914Z,64.00
2019-05-02T06:22:48.895Z,72.00
2019-05-02T06:23:48.880Z,80.00
2019-05-02T06:24:50.986Z,76.00
2019-05-02T06:25:48.834Z,72.00
2019-05-02T06:26:49.814Z,72.00
2019-05-02T06:27:48.797Z,76.00
2019-05-02T06:28:48.776Z,72.00
2019-05-02T06:29:51.186Z,72.00
2019-05-02T06:30:48.734Z,68.00
2019-05-02T06:31:48.716Z,72.00
2019-05-02T06:32:49.984Z,72.00
2019-05-02T06:33:48.676Z,76.00
2019-05-02T06:34:48.659Z,80.00
2019-05-02T06:35:51.760Z,76.00
2019-05-02T06:36:48.621Z,76.00
2019-05-02T06:37:49.929Z,72.00
2019-05-02T06:38:52.303Z,72.00
2019-05-02T06:39:48.562Z,80.00
2019-05-02T06:40:48.539Z,76.00
2019-05-02T06:41:52.173Z,76.00
2019-05-02T06:42:48.497Z,76.00
2019-05-02T06:43:48.477Z,72.00
2019-05-02T06:44:48.467Z,68.00
2019-05-02T06:45:48.441Z,68.00
2019-05-02T06:46:48.417Z,76.00
2019-05-02T06:47:48.399Z,80.00
2019-05-02T06:48:52.384Z,84.00
2019-05-02T06:49:48.362Z,80.00
2019-05-02T06:50:48.345Z,84.00
2019-05-02T06:51:50.999Z,104.00
2019-05-02T06:52:48.300Z,116.00
2019-05-02T06:53:48.957Z,96.00
2019-05-02T06:54:48.262Z,108.00
2019-05-02T06:55:48.239Z,108.00
2019-05-02T06:56:49.209Z,100.00
2019-05-02T06:57:48.200Z,100.00
2019-05-02T06:58:48.184Z,120.00
2019-05-02T06:59:50.070Z,136.00
2019-05-02T07:00:57.287Z,124.00
2019-05-02T07:01:52.283Z,104.00
2019-05-02T07:02:48.104Z,128.00
2019-05-02T07:03:48.081Z,136.00
2019-05-02T07:04:48.062Z,124.00
2019-05-02T07:05:49.113Z,164.00
2019-05-02T07:06:58.283Z,136.00
2019-05-02T07:07:48.019Z,132.00
2019-05-02T07:08:47.986Z,144.00
2019-05-02T07:09:48.163Z,148.00
2019-05-02T07:10:47.942Z,144.00
2019-05-02T07:11:56.992Z,148.00
2019-05-02T07:12:51.096Z,152.00
2019-05-02T07:13:47.883Z,168.00
2019-05-02T07:14:47.861Z,132.00
2019-05-02T07:15:48.629Z,116.00
2019-05-02T07:16:49.699Z,152.00
2019-05-02T07:17:47.801Z,164.00
2019-05-02T07:18:49.583Z,160.00
2019-05-02T07:19:47.762Z,168.00
2019-05-02T07:20:47.745Z,160.00
2019-05-02T07:21:47.726Z,160.00
2019-05-02T07:22:47.701Z,148.00
2019-05-02T07:23:48.647Z,128.00
2019-05-02T07:24:47.662Z,148.00
2019-05-02T07:25:47.645Z,188.00
2019-05-02T07:26:47.628Z,208.00
2019-05-02T07:27:47.604Z,212.00
2019-05-02T07:28:47.604Z,180.00
2019-05-02T07:29:47.576Z,168.00
2019-05-02T07:30:47.545Z,168.00
2019-05-02T07:31:48.835Z,160.00
2019-05-02T07:32:47.506Z,180.00
2019-05-02T07:33:47.484Z,196.00
2019-05-02T07:34:48.264Z,180.00
2019-05-02T07:35:47.444Z,176.00
2019-05-02T07:36:47.430Z,152.00
2019-05-02T07:37:48.769Z,148.00
2019-05-02T07:38:47.388Z,160.00
2019-05-02T07:39:47.375Z,176.00
2019-05-02T07:40:48.089Z,192.00
2019-05-02T07:41:47.325Z,212.00
2019-05-02T07:42:47.307Z,232.00
2019-05-02T07:43:47.290Z,240.00
2019-05-02T07:44:47.271Z,228.00
2019-05-02T07:45:47.252Z,180.00
2019-05-02T07:46:51.912Z,192.00
2019-05-02T07:47:47.215Z,196.00
2019-05-02T07:48:49.057Z,208.00
2019-05-02T07:49:47.171Z,204.00
2019-05-02T07:50:48.167Z,188.00
2019-05-02T07:51:47.134Z,212.00
2019-05-02T07:52:47.118Z,228.00
2019-05-02T07:53:48.479Z,228.00
2019-05-02T07:54:47.072Z,240.00
2019-05-02T07:55:49.169Z,204.00
2019-05-02T07:56:48.704Z,180.00
2019-05-02T07:57:47.013Z,208.00
2019-05-02T07:58:48.121Z,192.00
2019-05-02T07:59:49.693Z,208.00
2019-05-02T08:00:46.963Z,184.00
2019-05-02T08:01:49.714Z,224.00
2019-05-02T08:02:46.915Z,272.00
2019-05-02T08:03:46.900Z,220.00
2019-05-02T08:04:46.882Z,196.00
2019-05-02T08:05:46.873Z,200.00
2019-05-02T08:06:46.870Z,192.00
2019-05-02T08:07:46.848Z,176.00
2019-05-02T08:08:46.808Z,188.00
2019-05-02T08:09:46.780Z,208.00
2019-05-02T08:10:46.760Z,248.00
2019-05-02T08:11:46.785Z,260.00
2019-05-02T08:12:46.722Z,224.00
2019-05-02T08:13:49.626Z,232.00
2019-05-02T08:14:46.683Z,224.00
2019-05-02T08:15:50.916Z,228.00
2019-05-02T08:16:46.644Z,224.00
2019-05-02T08:17:53.204Z,196.00
2019-05-02T08:18:46.604Z,180.00
2019-05-02T08:19:46.583Z,180.00
2019-05-02T08:20:46.565Z,188.00
2019-05-02T08:21:46.547Z,220.00
2019-05-02T08:22:49.029Z,228.00
2019-05-02T08:23:46.514Z,228.00
2019-05-02T08:24:46.509Z,204.00
2019-05-02T08:25:46.585Z,224.00
2019-05-02T08:26:46.450Z,272.00
2019-05-02T08:27:46.429Z,228.00
2019-05-02T08:28:47.072Z,220.00
2019-05-02T08:29:46.402Z,276.00
2019-05-02T08:30:46.368Z,256.00
2019-05-02T08:31:46.349Z,216.00
2019-05-02T08:32:46.331Z,204.00
2019-05-02T08:33:46.312Z,220.00
2019-05-02T08:34:51.313Z,196.00
2019-05-02T08:35:46.272Z,192.00
2019-05-02T08:36:46.256Z,224.00
2019-05-02T08:37:46.234Z,208.00
2019-05-02T08:38:48.941Z,252.00
2019-05-02T08:39:46.196Z,244.00
2019-05-02T08:40:47.866Z,268.00
2019-05-02T08:41:46.160Z,288.00
2019-05-02T08:42:46.138Z,304.00
2019-05-02T08:43:46.255Z,292.00
2019-05-02T08:44:51.357Z,232.00
2019-05-02T08:45:46.086Z,276.00
2019-05-02T08:46:51.077Z,288.00
2019-05-02T08:47:46.040Z,256.00
2019-05-02T08:48:46.020Z,300.00
2019-05-02T08:49:49.389Z,348.00
2019-05-02T08:50:45.982Z,308.00
2019-05-02T08:51:45.965Z,268.00
2019-05-02T08:52:48.034Z,208.00
2019-05-02T08:53:45.924Z,264.00
2019-05-02T08:54:45.908Z,248.00
2019-05-02T08:55:46.747Z,232.00
2019-05-02T08:56:45.892Z,300.00
2019-05-02T08:57:45.848Z,268.00
2019-05-02T08:58:49.955Z,228.00
2019-05-02T08:59:45.816Z,296.00
2019-05-02T09:00:47.450Z,332.00
2019-05-02T09:01:49.329Z,356.00
2019-05-02T09:02:45.756Z,384.00
2019-05-02T09:03:55.537Z,296.00
2019-05-02T09:04:57.334Z,316.00
2019-05-02T09:05:46.284Z,272.00
2019-05-02T09:06:46.097Z,240.00
2019-05-02T09:07:45.664Z,308.00
2019-05-02T09:08:46.169Z,276.00
2019-05-02T09:09:45.622Z,200.00
2019-05-02T09:10:45.604Z,240.00
2019-05-02T09:12:01.071Z,296.00
2019-05-02T09:12:45.653Z,300.00
2019-05-02T09:13:46.101Z,292.00
2019-05-02T09:14:45.526Z,360.00
2019-05-02T09:15:50.977Z,400.00
2019-05-02T09:16:45.490Z,356.00
2019-05-02T09:17:52.725Z,368.00
2019-05-02T09:18:51.002Z,400.00
2019-05-02T09:19:59.169Z,356.00
2019-05-02T09:20:47.102Z,364.00
2019-05-02T09:21:45.395Z,356.00
2019-05-02T09:22:46.537Z,324.00
2019-05-02T09:23:45.357Z,368.00
2019-05-02T09:24:45.350Z,348.00
2019-05-02T09:25:45.326Z,396.00
2019-05-02T09:26:45.300Z,372.00
2019-05-02T09:27:45.282Z,348.00
2019-05-02T09:28:45.275Z,388.00
2019-05-02T09:29:45.972Z,388.00
2019-05-02T09:30:46.819Z,312.00
2019-05-02T09:31:46.172Z,356.00
2019-05-02T09:32:45.204Z,352.00
2019-05-02T09:33:46.834Z,412.00
2019-05-02T09:34:45.149Z,420.00
2019-05-02T09:35:45.131Z,408.00
2019-05-02T09:36:45.117Z,400.00
2019-05-02T09:37:45.094Z,312.00
2019-05-02T09:38:48.687Z,356.00
2019-05-02T09:39:45.057Z,368.00
2019-05-02T09:40:47.267Z,376.00
2019-05-02T09:41:45.033Z,372.00
2019-05-02T09:42:47.481Z,372.00
2019-05-02T09:43:44.989Z,356.00
2019-05-02T09:44:48.067Z,344.00
2019-05-02T09:45:44.945Z,320.00
2019-05-02T09:46:47.391Z,344.00
2019-05-02T09:47:56.708Z,368.00
2019-05-02T09:48:44.890Z,392.00
2019-05-02T09:49:49.004Z,392.00
2019-05-02T09:50:44.851Z,400.00
2019-05-02T09:51:45.653Z,352.00
2019-05-02T09:52:44.815Z,372.00
2019-05-02T09:53:44.801Z,384.00
2019-05-02T09:54:46.176Z,396.00
2019-05-02T09:55:50.365Z,404.00
2019-05-02T09:56:44.742Z,408.00
2019-05-02T09:57:44.723Z,448.00
2019-05-02T09:58:44.704Z,416.00
2019-05-02T09:59:50.345Z,328.00
2019-05-02T10:00:44.671Z,400.00
2019-05-02T10:01:44.649Z,412.00
2019-05-02T10:02:44.638Z,420.00
2019-05-02T10:03:44.616Z,436.00
2019-05-02T10:04:44.596Z,424.00
2019-05-02T10:05:44.586Z,424.00
2019-05-02T10:06:44.563Z,428.00
2019-05-02T10:07:44.540Z,436.00
2019-05-02T10:08:46.562Z,428.00
2019-05-02T10:09:44.529Z,444.00
2019-05-02T10:10:45.966Z,452.00
2019-05-02T10:11:44.469Z,416.00
2019-05-02T10:12:44.462Z,444.00
2019-05-02T10:13:44.448Z,488.00
2019-05-02T10:14:44.414Z,396.00
2019-05-02T10:15:44.406Z,312.00
2019-05-02T10:16:44.383Z,400.00
2019-05-02T10:17:46.746Z,300.00
2019-05-02T10:18:44.352Z,324.00
2019-05-02T10:19:49.572Z,472.00
2019-05-02T10:20:44.312Z,292.00
2019-05-02T10:21:46.874Z,436.00
2019-05-02T10:22:44.271Z,412.00
2019-05-02T10:23:44.254Z,368.00
2019-05-02T10:24:44.236Z,432.00
2019-05-02T10:25:46.748Z,544.00
2019-05-02T10:26:44.202Z,600.00
2019-05-02T10:27:47.480Z,456.00
2019-05-02T10:28:49.375Z,560.00
2019-05-02T10:29:44.145Z,412.00
2019-05-02T10:30:47.374Z,492.00
2019-05-02T10:31:44.112Z,420.00
2019-05-02T10:32:47.213Z,480.00
2019-05-02T10:33:44.084Z,336.00
2019-05-02T10:34:47.682Z,412.00
2019-05-02T10:35:44.078Z,580.00
2019-05-02T10:36:45.461Z,456.00
2019-05-02T10:37:44.004Z,496.00
2019-05-02T10:38:43.988Z,532.00
2019-05-02T10:39:43.969Z,564.00
2019-05-02T10:40:48.261Z,588.00
2019-05-02T10:41:43.939Z,616.00
2019-05-02T10:42:43.920Z,412.00
2019-05-02T10:43:46.972Z,612.00
2019-05-02T10:44:43.884Z,628.00
2019-05-02T10:45:47.467Z,552.00
2019-05-02T10:46:43.846Z,560.00
2019-05-02T10:47:43.830Z,600.00
2019-05-02T10:48:43.815Z,628.00
2019-05-02T10:49:43.797Z,640.00
2019-05-02T10:50:43.780Z,648.00
2019-05-02T10:51:49.192Z,676.00
2019-05-02T10:52:43.743Z,648.00
2019-05-02T10:53:47.131Z,628.00
2019-05-02T10:54:43.715Z,668.00
2019-05-02T10:55:43.694Z,668.00
2019-05-02T10:56:43.675Z,648.00
2019-05-02T10:57:43.656Z,496.00
2019-05-02T10:58:43.640Z,472.00
2019-05-02T10:59:43.631Z,632.00
2019-05-02T11:00:45.485Z,492.00
2019-05-02T11:01:43.589Z,676.00
2019-05-02T11:02:43.572Z,684.00
2019-05-02T11:03:47.338Z,708.00
2019-05-02T11:04:43.546Z,720.00
2019-05-02T11:05:43.519Z,740.00
2019-05-02T11:06:46.340Z,764.00
2019-05-02T11:07:43.487Z,744.00
2019-05-02T11:08:46.016Z,644.00
2019-05-02T11:09:43.455Z,792.00
2019-05-02T11:10:43.436Z,912.00
2019-05-02T11:11:43.419Z,988.00
2019-05-02T11:12:46.855Z,1080.00
2019-05-02T11:13:43.387Z,1064.00
2019-05-02T11:14:43.370Z,1152.00
2019-05-02T11:15:43.354Z,344.00
2019-05-02T11:16:43.336Z,1388.00
2019-05-02T11:17:43.320Z,1396.00
2019-05-02T11:18:45.221Z,1552.00
2019-05-02T11:19:43.287Z,868.00
2019-05-02T11:20:43.272Z,1628.00
2019-05-02T11:21:55.540Z,1732.00
2019-05-02T11:22:43.239Z,1564.00
2019-05-02T11:23:43.238Z,436.00
2019-05-02T11:24:43.203Z,1624.00
2019-05-02T11:25:43.185Z,1700.00
2019-05-02T11:26:43.172Z,632.00
2019-05-02T11:27:43.154Z,704.00
2019-05-02T11:28:43.138Z,1076.00
2019-05-02T11:29:43.121Z,704.00
2019-05-02T11:30:43.105Z,1736.00
2019-05-02T11:31:43.090Z,1208.00
2019-05-02T11:32:43.074Z,1912.00
2019-05-02T11:33:43.057Z,2024.00
2019-05-02T11:34:43.045Z,720.00
2019-05-02T11:35:49.021Z,1132.00
2019-05-02T11:36:43.014Z,2036.00
2019-05-02T11:37:42.997Z,2040.00
2019-05-02T11:38:45.497Z,1848.00
2019-05-02T11:39:49.451Z,1844.00
2019-05-02T11:40:42.962Z,700.00
2019-05-02T11:41:42.946Z,736.00
2019-05-02T11:42:42.926Z,2124.00
2019-05-02T11:43:44.958Z,2080.00
2019-05-02T11:44:42.900Z,2128.00
2019-05-02T11:45:42.883Z,2320.00
2019-05-02T11:46:46.778Z,788.00
2019-05-02T11:47:42.859Z,512.00
2019-05-02T11:48:54.719Z,484.00
2019-05-02T11:49:46.796Z,548.00
2019-05-02T11:50:42.818Z,1920.00
2019-05-02T11:51:47.171Z,804.00
2019-05-02T11:52:42.790Z,380.00
2019-05-02T11:53:42.777Z,536.00
2019-05-02T11:54:44.692Z,580.00
2019-05-02T11:55:43.852Z,1132.00
2019-05-02T11:56:49.056Z,2400.00
2019-05-02T11:57:42.813Z,2284.00
2019-05-02T11:58:48.227Z,2244.00
2019-05-02T11:59:42.697Z,2244.00
2019-05-02T12:00:45.513Z,1576.00
2019-05-02T12:01:42.716Z,2156.00
2019-05-02T12:02:42.658Z,2420.00
2019-05-02T12:03:42.644Z,2276.00
2019-05-02T12:04:42.633Z,816.00
2019-05-02T12:05:42.651Z,2340.00
2019-05-02T12:06:42.608Z,1864.00
2019-05-02T12:07:42.592Z,1124.00
2019-05-02T12:08:44.897Z,800.00
2019-05-02T12:09:44.075Z,1956.00
2019-05-02T12:10:42.555Z,572.00
2019-05-02T12:11:42.544Z,2428.00
2019-05-02T12:12:42.986Z,2552.00
2019-05-02T12:13:42.820Z,2580.00
2019-05-02T12:14:42.507Z,2352.00
2019-05-02T12:15:44.260Z,2332.00
2019-05-02T12:16:43.128Z,2184.00
2019-05-02T12:17:42.467Z,520.00
2019-05-02T12:18:42.508Z,544.00
2019-05-02T12:19:42.692Z,312.00
2019-05-02T12:20:42.824Z,288.00
2019-05-02T12:21:42.422Z,324.00
2019-05-02T12:22:42.443Z,352.00
2019-05-02T12:23:42.401Z,364.00
2019-05-02T12:24:45.365Z,472.00
2019-05-02T12:25:42.489Z,320.00
2019-05-02T12:26:42.389Z,288.00
2019-05-02T12:27:42.595Z,332.00
2019-05-02T12:28:42.881Z,376.00
2019-05-02T12:29:42.454Z,496.00
2019-05-02T12:30:42.310Z,1708.00
2019-05-02T12:31:42.743Z,2400.00
2019-05-02T12:32:42.838Z,1764.00
2019-05-02T12:33:42.717Z,2576.00
2019-05-02T12:34:42.262Z,2492.00
2019-05-02T12:35:43.197Z,2344.00
2019-05-02T12:36:42.767Z,2308.00
2019-05-02T12:37:42.533Z,2088.00
2019-05-02T12:38:42.234Z,2068.00
2019-05-02T12:39:42.594Z,2220.00
2019-05-02T12:40:42.407Z,2320.00
2019-05-02T12:41:42.615Z,2472.00
2019-05-02T12:42:42.194Z,1864.00
2019-05-02T12:43:42.212Z,2408.00
2019-05-02T12:44:42.707Z,916.00
2019-05-02T12:45:42.345Z,2212.00
2019-05-02T12:46:42.294Z,556.00
2019-05-02T12:47:42.819Z,620.00
2019-05-02T12:48:42.293Z,664.00
2019-05-02T12:49:42.475Z,644.00
2019-05-02T12:50:42.068Z,928.00
2019-05-02T12:51:42.901Z,1384.00
2019-05-02T12:52:42.872Z,2168.00
2019-05-02T12:53:42.034Z,844.00
2019-05-02T12:54:42.028Z,516.00
2019-05-02T12:55:42.293Z,460.00
2019-05-02T12:56:42.009Z,384.00
2019-05-02T12:57:42.924Z,292.00
2019-05-02T12:58:42.193Z,280.00
2019-05-02T12:59:41.963Z,388.00
2019-05-02T13:00:43.022Z,572.00
2019-05-02T13:01:42.217Z,620.00